Time;durP1;ratioP1;P1;durP2;ratioP2;P2;SDS_P1;SDS_P2;PMS_P1;PMS_P2;Temp;Humidity;BMP_temperature;BMP_pressure;BME280_temperature;BME280_humidity;BME280_pressure;Samples;Min_cycle;Max_cycle;Signal;HPM_P1;HPM_P2
2021/03/13 00:01:19;;;;;;;;;;;;;;;10.16;59.75;99480.13;4452531;32;20039;-89
2021/03/13 00:03:44;;;;;;;;;;;;;;;10.25;59.76;99484.22;4452351;32;20310;-90
2021/03/13 00:06:10;;;;;;;;;;;;;;;9.99;59.74;99479.88;4439603;32;19977;-91
2021/03/13 00:08:37;;;;;;;;;;;;;;;9.93;59.74;99481.81;4453367;32;20239;-90
2021/03/13 00:11:03;;;;;;;;;;;;;;;9.89;59.73;99486.28;4439564;32;20001;-90
2021/03/13 00:13:28;;;;;;;;;;;;;;;9.82;59.73;99484.78;4439139;32;20052;-91
2021/03/13 00:15:53;;;;;;;;;;;;;;;9.87;59.74;99485.47;4452322;32;20368;-90
2021/03/13 00:18:19;;;;;;;;;;;;;;;9.90;59.73;99492.31;4439300;32;20025;-90
2021/03/13 00:20:44;;;;;;;;;;;;;;;9.86;59.72;99494.19;4439077;32;20005;-90
2021/03/13 00:23:09;;;;;;;;;;;;;;;9.70;59.72;99496.47;4452195;32;19981;-89
2021/03/13 00:25:35;;;;;;;;;;;;;;;9.74;59.73;99499.81;4439023;32;20009;-91
2021/03/13 00:28:00;;;;;;;;;;;;;;;9.67;59.72;99493.94;4451828;32;20289;-90
2021/03/13 00:30:25;;;;;;;;;;;;;;;9.59;59.72;99503.72;4453386;32;20261;-91
2021/03/13 00:32:51;;;;;;;;;;;;;;;9.44;59.71;99501.59;4451895;32;20329;-92
2021/03/13 00:35:17;;;;;;;;;;;;;;;9.59;59.72;99493.34;4438725;32;19987;-91
2021/03/13 00:37:42;;;;;;;;;;;;;;;9.47;59.71;99497.19;4438839;32;20243;-91
2021/03/13 00:40:09;;;;;;;;;;;;;;;9.60;59.72;99495.03;4438607;32;20021;-91
2021/03/13 00:42:34;;;;;;;;;;;;;;;9.53;59.71;99481.41;4439226;32;19981;-91
2021/03/13 00:44:59;;;;;;;;;;;;;;;9.36;59.70;99485.41;4438660;32;19977;-92
2021/03/13 00:47:24;;;;;;;;;;;;;;;9.58;59.72;99488.19;4451824;32;35873;-89
2021/03/13 00:49:49;;;;;;;;;;;;;;;9.45;59.71;99485.97;4440952;32;19985;-89
2021/03/13 00:52:15;;;;;;;;;;;;;;;9.37;59.70;99482.78;4440771;32;20040;-90
2021/03/13 00:54:40;;;;;;;;;;;;;;;9.32;59.70;99483.81;4441025;32;27211;-90
2021/03/13 00:57:05;;;;;;;;;;;;;;;9.26;59.69;99478.81;4440623;32;32167;-90
2021/03/13 00:59:30;;;;;;;;;;;;;;;9.37;59.70;99480.19;4440914;32;20021;-90
2021/03/13 01:01:56;;;;;;;;;;;;;;;9.34;59.71;99477.69;4453918;32;19977;-90
2021/03/13 01:04:22;;;;;;;;;;;;;;;9.41;59.70;99473.13;4441383;32;19988;-91
2021/03/13 01:06:47;;;;;;;;;;;;;;;9.35;59.70;99476.78;4440384;32;20433;-91
2021/03/13 01:09:12;;;;;;;;;;;;;;;9.29;59.70;99471.78;4440758;32;20005;-91
2021/03/13 01:11:37;;;;;;;;;;;;;;;9.14;59.69;99475.69;4440396;32;25595;-91
2021/03/13 01:14:05;;;;;;;;;;;;;;;8.96;59.68;99472.78;4453441;32;24328;-90
2021/03/13 01:16:30;;;;;;;;;;;;;;;8.85;59.67;99470.53;4440630;32;19997;-90
2021/03/13 01:18:55;;;;;;;;;;;;;;;8.81;59.67;99469.78;4440372;32;20000;-91
2021/03/13 01:21:21;;;;;;;;;;;;;;;8.66;59.67;99470.19;4452986;32;23925;-92
2021/03/13 01:23:46;;;;;;;;;;;;;;;8.61;59.66;99478.13;4440788;32;20122;-92
2021/03/13 01:26:11;;;;;;;;;;;;;;;8.50;59.65;99474.13;4440812;32;20504;-91
2021/03/13 01:28:36;;;;;;;;;;;;;;;8.60;59.67;99467.78;4440856;32;19996;-90
2021/03/13 01:31:05;;;;;;;;;;;;;;;8.76;59.67;99471.66;4440225;32;19996;-91
2021/03/13 01:33:33;;;;;;;;;;;;;;;8.63;59.66;99467.69;4440829;32;20249;-91
2021/03/13 01:36:01;;;;;;;;;;;;;;;8.53;59.66;99474.91;4440929;32;19996;-90
2021/03/13 01:38:29;;;;;;;;;;;;;;;8.34;59.65;99475.44;4441071;32;20413;-90
2021/03/13 01:40:54;;;;;;;;;;;;;;;8.31;59.65;99485.00;4453962;32;19960;-91
2021/03/13 01:43:20;;;;;;;;;;;;;;;8.37;59.64;99472.78;4453636;32;19973;-91
2021/03/13 01:45:45;;;;;;;;;;;;;;;8.24;59.64;99480.84;4440301;32;32151;-91
2021/03/13 01:48:13;;;;;;;;;;;;;;;8.34;59.64;99476.31;4440322;32;30523;-91
2021/03/13 01:50:41;;;;;;;;;;;;;;;8.17;59.64;99479.31;4454086;32;19993;-90
2021/03/13 01:53:07;;;;;;;;;;;;;;;8.07;59.64;99475.28;4454289;32;19987;-91
2021/03/13 01:55:32;;;;;;;;;;;;;;;7.99;59.63;99475.44;4440751;32;20044;-90
2021/03/13 01:57:57;;;;;;;;;;;;;;;8.07;59.64;99477.88;4441009;32;20004;-90
2021/03/13 02:00:23;;;;;;;;;;;;;;;8.05;59.62;99476.19;4440104;32;31292;-90
2021/03/13 02:02:48;;;;;;;;;;;;;;;7.98;59.62;99472.91;4453835;32;19982;-91
2021/03/13 02:05:16;;;;;;;;;;;;;;;8.05;59.63;99468.44;4453680;32;19989;-91
2021/03/13 02:07:45;;;;;;;;;;;;;;;8.05;59.63;99471.03;4453948;32;19997;-89
2021/03/13 02:10:16;;;;;;;;;;;;;;;8.10;59.63;99463.97;4453651;32;20049;-90
2021/03/13 02:12:57;;;;;;;;;;;;;;;7.96;59.62;99472.09;4453938;32;19977;-91
2021/03/13 02:15:41;;;;;;;;;;;;;;;7.82;59.62;99466.44;4453690;32;19985;-91
2021/03/13 02:18:09;;;;;;;;;;;;;;;7.90;59.61;99465.31;4453784;32;20007;-91
2021/03/13 02:20:53;;;;;;;;;;;;;;;7.97;59.62;99468.59;4453414;32;19981;-91
2021/03/13 02:23:19;;;;;;;;;;;;;;;7.85;59.62;99481.88;4454668;32;20071;-91
2021/03/13 02:26:03;;;;;;;;;;;;;;;7.73;59.61;99479.59;4454848;32;19993;-90
2021/03/13 02:28:35;;;;;;;;;;;;;;;7.73;59.61;99472.66;4453233;32;19992;-91
2021/03/13 02:31:00;;;;;;;;;;;;;;;7.64;59.61;99476.34;4452978;32;19989;-90
2021/03/13 02:33:33;;;;;;;;;;;;;;;7.59;59.60;99485.97;4453402;32;20032;-90
2021/03/13 02:35:58;;;;;;;;;;;;;;;7.51;59.60;99490.47;4441071;32;19992;-92
2021/03/13 02:38:27;;;;;;;;;;;;;;;7.56;59.60;99493.78;4440900;32;20330;-91
2021/03/13 02:40:52;;;;;;;;;;;;;;;7.34;59.59;99502.97;4453217;32;20400;-91
2021/03/13 02:43:17;;;;;;;;;;;;;;;7.24;59.58;99509.22;4440401;32;20022;-91
2021/03/13 02:45:47;;;;;;;;;;;;;;;7.30;59.59;99519.44;4439545;32;28804;-91
2021/03/13 02:48:12;;;;;;;;;;;;;;;7.24;59.58;99512.66;4440775;32;20023;-91
2021/03/13 02:50:42;;;;;;;;;;;;;;;6.90;59.56;99507.38;4439928;32;20326;-91
2021/03/13 02:53:08;;;;;;;;;;;;;;;6.75;59.55;99515.44;4453527;32;19970;-91
2021/03/13 02:55:33;;;;;;;;;;;;;;;6.66;59.55;99515.66;4440444;32;20028;-91
2021/03/13 02:57:59;;;;;;;;;;;;;;;6.77;59.56;99506.78;4440689;32;19993;-91
2021/03/13 03:00:25;;;;;;;;;;;;;;;6.57;59.54;99515.81;4453634;32;20009;-91
2021/03/13 03:02:51;;;;;;;;;;;;;;;6.65;59.54;99519.97;4440693;32;20329;-91
2021/03/13 03:05:17;;;;;;;;;;;;;;;6.72;59.55;99515.53;4440303;32;19993;-91
2021/03/13 03:07:45;;;;;;;;;;;;;;;6.57;59.54;99520.97;4439722;32;20001;-91
2021/03/13 03:10:13;;;;;;;;;;;;;;;6.83;59.56;99516.13;4452631;32;19987;-91
2021/03/13 03:12:38;;;;;;;;;;;;;;;6.66;59.55;99513.06;4453050;32;19961;-90
2021/03/13 03:15:04;;;;;;;;;;;;;;;6.35;59.54;99521.37;4452398;32;30557;-90
2021/03/13 03:17:32;;;;;;;;;;;;;;;6.42;59.53;99524.72;4440145;32;20001;-90
2021/03/13 03:19:58;;;;;;;;;;;;;;;6.44;59.54;99522.97;4440333;32;20007;-90
2021/03/13 03:22:23;;;;;;;;;;;;;;;6.34;59.53;99518.84;4439779;32;20318;-89
2021/03/13 03:24:48;;;;;;;;;;;;;;;6.25;59.52;99514.69;4439753;32;20021;-90
2021/03/13 03:27:13;;;;;;;;;;;;;;;6.07;59.52;99515.00;4452864;32;20265;-90
2021/03/13 03:29:39;;;;;;;;;;;;;;;5.94;59.51;99518.72;4439443;32;19993;-91
2021/03/13 03:32:04;;;;;;;;;;;;;;;6.02;59.51;99529.75;4452375;32;25208;-90
2021/03/13 03:34:29;;;;;;;;;;;;;;;6.10;59.52;99531.31;4453224;32;20016;-90
2021/03/13 03:36:55;;;;;;;;;;;;;;;6.13;59.52;99526.09;4440182;32;20101;-90
2021/03/13 03:39:20;;;;;;;;;;;;;;;5.85;59.51;99535.16;4439985;32;19996;-91
2021/03/13 03:41:46;;;;;;;;;;;;;;;5.83;59.51;99535.19;4440056;32;20039;-90
2021/03/13 03:44:12;;;;;;;;;;;;;;;5.66;59.49;99528.56;4440065;32;20397;-89
2021/03/13 03:46:38;;;;;;;;;;;;;;;5.55;59.49;99536.50;4453020;32;20023;-90
2021/03/13 03:49:04;;;;;;;;;;;;;;;5.53;59.49;99533.09;4440488;32;20322;-90
2021/03/13 03:51:29;;;;;;;;;;;;;;;5.46;59.49;99534.91;4440099;32;19985;-90
2021/03/13 03:53:54;;;;;;;;;;;;;;;5.52;59.48;99545.16;4453498;32;21488;-90
2021/03/13 03:56:20;;;;;;;;;;;;;;;5.71;59.50;99532.81;4440109;32;19985;-90
2021/03/13 03:58:45;;;;;;;;;;;;;;;5.46;59.48;99546.97;4440071;32;20012;-90
2021/03/13 04:01:10;;;;;;;;;;;;;;;5.49;59.48;99541.75;4439802;32;19996;-91
2021/03/13 04:03:41;;;;;;;;;;;;;;;5.38;59.47;99541.03;4439581;32;19996;-90
2021/03/13 04:06:06;;;;;;;;;;;;;;;5.43;59.48;99534.09;4439923;32;19993;-90
2021/03/13 04:08:32;;;;;;;;;;;;;;;5.50;59.49;99538.31;4439869;32;19985;-91
2021/03/13 04:10:57;;;;;;;;;;;;;;;5.13;59.47;99541.38;4439656;32;20883;-91
2021/03/13 04:13:22;;;;;;;;;;;;;;;5.35;59.48;99539.38;4439831;32;20603;-91
2021/03/13 04:15:47;;;;;;;;;;;;;;;5.25;59.47;99545.53;4440006;32;19996;-92
2021/03/13 04:18:13;;;;;;;;;;;;;;;5.38;59.47;99547.06;4440101;32;19989;-92
2021/03/13 04:20:38;;;;;;;;;;;;;;;5.39;59.48;99551.34;4439788;32;19992;-92
2021/03/13 04:23:03;;;;;;;;;;;;;;;5.29;59.47;99542.03;4441072;32;19989;-92
2021/03/13 04:25:30;;;;;;;;;;;;;;;5.34;59.47;99536.81;4454555;32;20028;-91
2021/03/13 04:27:55;;;;;;;;;;;;;;;5.22;59.46;99537.84;4441872;32;20033;-91
2021/03/13 04:30:20;;;;;;;;;;;;;;;5.16;59.46;99545.66;4454668;32;20309;-92
2021/03/13 04:32:46;;;;;;;;;;;;;;;5.19;59.47;99540.44;4441500;32;20012;-91
2021/03/13 04:35:14;;;;;;;;;;;;;;;4.97;59.45;99545.06;4454444;32;19997;-90
2021/03/13 04:37:40;;;;;;;;;;;;;;;5.17;59.47;99544.78;4441668;32;20368;-90
2021/03/13 04:40:05;;;;;;;;;;;;;;;5.17;59.47;99544.78;4454372;32;20061;-91
2021/03/13 04:42:31;;;;;;;;;;;;;;;5.24;59.47;99542.09;4455354;32;19981;-91
2021/03/13 04:44:56;;;;;;;;;;;;;;;5.29;59.47;99546.34;4453756;32;19989;-90
2021/03/13 04:47:22;;;;;;;;;;;;;;;5.27;59.47;99545.53;4440615;32;20258;-91
2021/03/13 04:49:47;;;;;;;;;;;;;;;5.06;59.46;99544.06;4453703;32;20021;-90
2021/03/13 04:52:12;;;;;;;;;;;;;;;5.15;59.46;99549.97;4453667;32;20031;-90
2021/03/13 04:54:37;;;;;;;;;;;;;;;5.15;59.46;99555.12;4439970;32;37047;-90
2021/03/13 04:57:05;;;;;;;;;;;;;;;5.12;59.46;99547.41;4453932;32;19981;-90
2021/03/13 04:59:31;;;;;;;;;;;;;;;4.89;59.45;99558.03;4453658;32;19969;-90
2021/03/13 05:01:58;;;;;;;;;;;;;;;4.83;59.44;99557.25;4453588;32;20820;-89
2021/03/13 05:04:26;;;;;;;;;;;;;;;4.69;59.44;99559.97;4441057;32;20282;-90
2021/03/13 05:06:51;;;;;;;;;;;;;;;4.87;59.45;99551.19;4454069;32;20042;-90
2021/03/13 05:09:17;;;;;;;;;;;;;;;4.91;59.45;99552.84;4452637;32;31158;-89
2021/03/13 05:11:44;;;;;;;;;;;;;;;4.94;59.46;99553.66;4440756;32;20025;-89
2021/03/13 05:14:09;;;;;;;;;;;;;;;5.10;59.46;99554.34;4454362;32;19985;-92
2021/03/13 05:16:38;;;;;;;;;;;;;;;4.97;59.45;99555.38;4454105;32;20027;-88
2021/03/13 05:19:03;;;;;;;;;;;;;;;5.01;59.46;99559.63;4454929;32;19987;-91
2021/03/13 05:21:31;;;;;;;;;;;;;;;5.07;59.46;99551.78;4440847;32;20000;-92
2021/03/13 05:23:56;;;;;;;;;;;;;;;5.14;59.46;99550.84;4440808;32;20038;-89
2021/03/13 05:26:22;;;;;;;;;;;;;;;5.24;59.46;99551.59;4453738;32;30453;-91
2021/03/13 05:28:47;;;;;;;;;;;;;;;5.24;59.47;99543.84;4454327;32;20235;-91
2021/03/13 05:31:13;;;;;;;;;;;;;;;5.03;59.46;99544.13;4440886;32;20032;-91
2021/03/13 05:33:38;;;;;;;;;;;;;;;5.16;59.47;99546.50;4440360;32;19985;-91
2021/03/13 05:36:06;;;;;;;;;;;;;;;5.27;59.48;99542.94;4440203;32;27349;-90
2021/03/13 05:38:34;;;;;;;;;;;;;;;5.39;59.49;99547.91;4440937;32;20027;-91
2021/03/13 05:40:59;;;;;;;;;;;;;;;5.42;59.48;99545.28;4453365;32;20009;-91
2021/03/13 05:43:25;;;;;;;;;;;;;;;5.37;59.47;99539.34;4440805;32;20021;-91
2021/03/13 05:45:50;;;;;;;;;;;;;;;5.47;59.49;99539.19;4440952;32;19995;-91
2021/03/13 05:48:23;;;;;;;;;;;;;;;5.53;59.49;99533.94;4440761;32;20016;-90
2021/03/13 05:50:48;;;;;;;;;;;;;;;5.71;59.50;99539.72;4440260;32;20534;-90
2021/03/13 05:53:13;;;;;;;;;;;;;;;6.06;59.52;99549.47;4440087;32;26319;-92
2021/03/13 05:55:39;;;;;;;;;;;;;;;5.83;59.50;99547.25;4440210;32;21486;-91
2021/03/13 05:58:06;;;;;;;;;;;;;;;6.00;59.51;99541.84;4440826;32;20036;-90
2021/03/13 06:00:31;;;;;;;;;;;;;;;5.76;59.49;99535.31;4440540;32;20023;-90
2021/03/13 06:02:57;;;;;;;;;;;;;;;5.91;59.51;99535.06;4452813;32;19981;-90
2021/03/13 06:05:23;;;;;;;;;;;;;;;6.15;59.52;99534.69;4452996;32;19997;-90
2021/03/13 06:07:48;;;;;;;;;;;;;;;6.30;59.53;99536.13;4453095;32;19973;-90
2021/03/13 06:10:13;;;;;;;;;;;;;;;6.46;59.54;99536.72;4452947;32;20379;-90
2021/03/13 06:12:39;;;;;;;;;;;;;;;6.57;59.54;99539.09;4453281;32;19999;-91
2021/03/13 06:15:04;;;;;;;;;;;;;;;6.75;59.55;99537.00;4452571;32;20326;-91
2021/03/13 06:17:29;;;;;;;;;;;;;;;7.19;59.58;99548.16;4439744;32;20318;-91
2021/03/13 06:19:55;;;;;;;;;;;;;;;7.32;59.60;99540.97;4452657;32;20001;-91
2021/03/13 06:22:34;;;;;;;;;;;;;;;7.30;59.58;99542.75;4440106;32;19993;-90
2021/03/13 06:25:18;;;;;;;;;;;;;;;7.24;59.58;99545.47;4452848;32;19977;-91
2021/03/13 06:27:44;;;;;;;;;;;;;;;7.41;59.59;99553.72;4452679;32;19985;-91
2021/03/13 06:30:10;;;;;;;;;;;;;;;7.44;59.59;99547.62;4439776;32;20374;-91
2021/03/13 06:32:36;;;;;;;;;;;;;;;7.55;59.60;99556.84;4453932;32;20008;-91
2021/03/13 06:35:20;;;;;;;;;;;;;;;7.70;59.60;99546.13;4452876;32;19989;-90
2021/03/13 06:37:46;;;;;;;;;;;;;;;7.97;59.62;99551.53;4452707;32;19989;-90
2021/03/13 06:40:11;;;;;;;;;;;;;;;8.40;59.65;99545.31;4453999;32;20027;-91
2021/03/13 06:42:36;;;;;;;;;;;;;;;8.37;59.65;99546.25;4439667;32;19985;-91
2021/03/13 06:45:03;;;;;;;;;;;;;;;8.30;59.63;99549.84;4451342;32;20338;-91
2021/03/13 06:47:32;;;;;;;;;;;;;;;8.43;59.64;99551.25;4452531;32;19969;-91
2021/03/13 06:50:10;;;;;;;;;;;;;;;8.51;59.66;99549.31;4452490;32;20388;-91
2021/03/13 06:52:35;;;;;;;;;;;;;;;8.70;59.66;99554.84;4439811;32;20120;-91
2021/03/13 06:55:01;;;;;;;;;;;;;;;8.71;59.66;99551.34;4439852;32;19988;-90
2021/03/13 06:57:26;;;;;;;;;;;;;;;8.90;59.68;99562.09;4452053;32;29971;-91
2021/03/13 06:59:51;;;;;;;;;;;;;;;9.01;59.68;99567.00;4451977;32;29588;-91
2021/03/13 07:02:20;;;;;;;;;;;;;;;9.32;59.69;99556.53;4452694;32;20001;-91
2021/03/13 07:04:45;;;;;;;;;;;;;;;9.42;59.71;99565.75;4440068;32;20036;-90
2021/03/13 07:07:10;;;;;;;;;;;;;;;9.52;59.71;99564.59;4453592;32;22378;-91
2021/03/13 07:09:45;;;;;;;;;;;;;;;9.77;59.72;99565.53;4439759;32;20026;-90
2021/03/13 07:12:29;;;;;;;;;;;;;;;9.89;59.73;99573.81;4453841;32;20019;-91
2021/03/13 07:14:55;;;;;;;;;;;;;;;10.08;59.73;99581.00;4453823;32;19976;-90
2021/03/13 07:17:20;;;;;;;;;;;;;;;10.11;59.74;99577.44;4452372;32;19984;-90
2021/03/13 07:19:46;;;;;;;;;;;;;;;10.10;59.74;99575.72;4439222;32;19988;-91
2021/03/13 07:22:11;;;;;;;;;;;;;;;10.37;59.75;99581.78;4438654;32;31981;-91
2021/03/13 07:24:37;;;;;;;;;;;;;;;10.31;59.75;99576.81;4452183;32;20039;-90
2021/03/13 07:27:03;;;;;;;;;;;;;;;10.35;59.75;99568.84;4452326;32;19993;-91
2021/03/13 07:29:28;;;;;;;;;;;;;;;10.61;59.76;99572.28;4452154;32;20004;-91
2021/03/13 07:32:00;;;;;;;;;;;;;;;10.58;59.76;99569.81;4438641;32;23640;-91
2021/03/13 07:34:30;;;;;;;;;;;;;;;10.62;59.76;99566.19;4452079;32;19996;-91
2021/03/13 07:36:56;;;;;;;;;;;;;;;10.80;59.78;99568.16;4439380;32;19977;-90
2021/03/13 07:39:22;;;;;;;;;;;;;;;10.89;59.78;99567.00;4452013;32;20012;-90
2021/03/13 07:42:00;;;;;;;;;;;;;;;11.12;59.79;99559.19;4451833;32;20358;-90
2021/03/13 07:44:25;;;;;;;;;;;;;;;11.15;59.79;99566.87;4452047;32;19981;-91
2021/03/13 07:46:51;;;;;;;;;;;;;;;11.31;59.81;99560.16;4451170;32;26946;-91
2021/03/13 07:49:16;;;;;;;;;;;;;;;11.46;59.82;99568.31;4438292;32;20013;-91
2021/03/13 07:51:42;;;;;;;;;;;;;;;11.51;59.81;99574.19;4451992;32;20000;-90
2021/03/13 07:54:07;;;;;;;;;;;;;;;11.67;59.83;99570.94;4453303;32;20000;-90
2021/03/13 07:56:32;;;;;;;;;;;;;;;11.81;59.83;99567.81;4452514;32;19999;-90
2021/03/13 07:59:01;;;;;;;;;;;;;;;11.94;59.84;99571.63;4454511;32;20001;-90
2021/03/13 08:01:44;;;;;;;;;;;;;;;12.02;59.84;99567.84;4453527;32;19997;-90
2021/03/13 08:04:09;;;;;;;;;;;;;;;12.10;59.85;99556.22;4453486;32;19976;-89
2021/03/13 08:06:55;;;;;;;;;;;;;;;12.18;59.86;99559.34;4454953;32;19988;-90
2021/03/13 08:09:24;;;;;;;;;;;;;;;12.38;59.86;99555.06;4453208;32;20012;-89
2021/03/13 08:11:49;;;;;;;;;;;;;;;12.35;59.86;99552.56;4454838;32;19985;-89
2021/03/13 08:14:20;;;;;;;;;;;;;;;12.49;59.87;99551.06;4452948;32;26735;-89
2021/03/13 08:16:48;;;;;;;;;;;;;;;12.50;59.87;99541.47;4440316;32;19995;-89
2021/03/13 08:19:27;;;;;;;;;;;;;;;12.79;59.88;99542.81;4440319;32;19996;-90
2021/03/13 08:22:08;;;;;;;;;;;;;;;12.91;59.89;99547.50;4453521;32;19996;-90
2021/03/13 08:24:40;;;;;;;;;;;;;;;12.90;59.89;99543.19;4453413;32;19981;-90
2021/03/13 08:27:05;;;;;;;;;;;;;;;13.18;59.90;99529.75;4440403;32;20452;-90
2021/03/13 08:29:43;;;;;;;;;;;;;;;13.24;59.91;99539.91;4453403;32;20037;-89
2021/03/13 08:32:09;;;;;;;;;;;;;;;13.28;59.91;99531.03;4440185;32;19985;-89
2021/03/13 08:34:34;;;;;;;;;;;;;;;13.36;59.92;99535.87;4453396;32;20000;-89
2021/03/13 08:37:00;;;;;;;;;;;;;;;13.41;59.91;99531.28;4454560;32;20119;-90
2021/03/13 08:39:25;;;;;;;;;;;;;;;13.43;59.92;99525.06;4439970;32;20001;-90
2021/03/13 08:41:56;;;;;;;;;;;;;;;13.34;59.92;99533.34;4440101;32;20329;-89
2021/03/13 08:44:25;;;;;;;;;;;;;;;13.68;59.93;99524.72;4453111;32;20008;-90
2021/03/13 08:46:59;;;;;;;;;;;;;;;13.87;59.94;99521.22;4452996;32;20049;-88
2021/03/13 08:49:24;;;;;;;;;;;;;;;13.96;59.95;99518.16;4452922;32;19993;-89
2021/03/13 08:52:05;;;;;;;;;;;;;;;13.86;59.94;99511.69;4452957;32;20035;-89
2021/03/13 08:54:47;;;;;;;;;;;;;;;14.07;59.96;99498.37;4454292;32;20313;-89
2021/03/13 08:57:16;;;;;;;;;;;;;;;14.09;59.96;99493.91;4453287;32;19969;-88
2021/03/13 08:59:42;;;;;;;;;;;;;;;14.09;59.95;99503.53;4453106;32;20012;-89
2021/03/13 09:02:08;;;;;;;;;;;;;;;14.32;59.96;99500.59;4440227;32;19989;-89
2021/03/13 09:04:36;;;;;;;;;;;;;;;14.44;59.97;99499.19;4440300;32;20353;-88
2021/03/13 09:07:02;;;;;;;;;;;;;;;14.53;59.98;99503.94;4453209;32;20008;-89
2021/03/13 09:09:28;;;;;;;;;;;;;;;14.49;59.99;99501.56;4452470;32;19997;-89
2021/03/13 09:12:00;;;;;;;;;;;;;;;14.60;59.98;99507.91;4440444;32;19985;-89
2021/03/13 09:14:25;;;;;;;;;;;;;;;14.56;59.98;99508.16;4453155;32;19995;-89
2021/03/13 09:16:51;;;;;;;;;;;;;;;14.58;59.98;99501.06;4453150;32;20297;-89
2021/03/13 09:19:16;;;;;;;;;;;;;;;14.51;59.98;99497.94;4453188;32;20017;-89
2021/03/13 09:21:54;;;;;;;;;;;;;;;14.53;59.98;99498.69;4453691;32;28847;-89
2021/03/13 09:24:20;;;;;;;;;;;;;;;14.56;59.98;99497.69;4453005;32;19988;-89
2021/03/13 09:26:49;;;;;;;;;;;;;;;14.49;59.98;99491.94;4454398;32;19982;-90
2021/03/13 09:29:14;;;;;;;;;;;;;;;14.58;59.99;99490.59;4452987;32;20004;-89
2021/03/13 09:31:40;;;;;;;;;;;;;;;14.66;59.99;99497.09;4454194;32;20021;-88
2021/03/13 09:34:12;;;;;;;;;;;;;;;14.76;59.99;99492.25;4439205;32;31388;-90
2021/03/13 09:36:37;;;;;;;;;;;;;;;14.98;60.00;99492.78;4452917;32;20078;-88
2021/03/13 09:39:02;;;;;;;;;;;;;;;15.04;60.01;99486.34;4452728;32;20013;-88
2021/03/13 09:41:27;;;;;;;;;;;;;;;15.09;60.00;99486.09;4439871;32;20024;-89
2021/03/13 09:43:53;;;;;;;;;;;;;;;15.13;60.02;99487.62;4439192;32;34139;-89
2021/03/13 09:46:18;;;;;;;;;;;;;;;15.02;60.00;99477.72;4440052;32;20015;-89
2021/03/13 09:48:44;;;;;;;;;;;;;;;15.15;60.01;99470.91;4454095;32;20234;-89
2021/03/13 09:51:09;;;;;;;;;;;;;;;15.15;60.01;99480.53;4452769;32;20007;-89
2021/03/13 09:53:36;;;;;;;;;;;;;;;15.28;60.02;99471.06;4439645;32;20349;-88
2021/03/13 09:56:01;;;;;;;;;;;;;;;15.41;60.03;99476.47;4454339;32;19987;-89
2021/03/13 09:58:26;;;;;;;;;;;;;;;15.58;60.03;99464.09;4452684;32;20004;-89
2021/03/13 10:00:52;;;;;;;;;;;;;;;15.64;60.04;99463.78;4452550;32;19993;-90
2021/03/13 10:03:17;;;;;;;;;;;;;;;15.75;60.04;99447.41;4452437;32;20250;-89
2021/03/13 10:05:42;;;;;;;;;;;;;;;15.76;60.05;99462.22;4439788;32;19997;-89
2021/03/13 10:08:08;;;;;;;;;;;;;;;15.80;60.05;99453.22;4452653;32;19996;-89
2021/03/13 10:10:34;;;;;;;;;;;;;;;16.06;60.06;99442.97;4452623;32;20024;-89
2021/03/13 10:13:02;;;;;;;;;;;;;;;16.10;60.07;99445.34;4452472;32;20299;-89
2021/03/13 10:15:30;;;;;;;;;;;;;;;16.06;60.06;99451.69;4454016;32;19973;-89
2021/03/13 10:17:59;;;;;;;;;;;;;;;16.10;60.07;99449.75;4452722;32;20013;-89
2021/03/13 10:20:26;;;;;;;;;;;;;;;16.24;60.08;99447.97;4451428;32;20016;-89
2021/03/13 10:22:51;;;;;;;;;;;;;;;16.30;60.07;99445.91;4439706;32;19989;-88
2021/03/13 10:25:16;;;;;;;;;;;;;;;16.41;60.09;99446.13;4452627;32;20322;-89
2021/03/13 10:27:42;;;;;;;;;;;;;;;16.44;60.09;99436.28;4452538;32;20318;-89
2021/03/13 10:30:07;;;;;;;;;;;;;;;16.57;60.09;99439.00;4439426;32;20001;-89
2021/03/13 10:32:33;;;;;;;;;;;;;;;16.59;60.09;99434.50;4439476;32;19996;-89
2021/03/13 10:35:05;;;;;;;;;;;;;;;16.71;60.10;99435.53;4453790;32;20037;-90
2021/03/13 10:37:37;;;;;;;;;;;;;;;16.95;60.11;99426.12;4453850;32;19989;-89
2021/03/13 10:40:02;;;;;;;;;;;;;;;16.94;60.11;99424.44;4439474;32;20004;-89
2021/03/13 10:42:33;;;;;;;;;;;;;;;17.10;60.12;99426.94;4452314;32;20318;-88
2021/03/13 10:45:09;;;;;;;;;;;;;;;17.13;60.12;99437.25;4452398;32;19969;-89
2021/03/13 10:47:35;;;;;;;;;;;;;;;17.18;60.12;99427.28;4452439;32;20020;-89
2021/03/13 10:50:01;;;;;;;;;;;;;;;17.36;60.14;99434.00;4452320;32;19989;-88
2021/03/13 10:52:26;;;;;;;;;;;;;;;17.50;60.14;99426.03;4452198;32;20348;-89
2021/03/13 10:54:52;;;;;;;;;;;;;;;17.61;60.14;99421.87;4452591;32;20231;-89
2021/03/13 10:57:18;;;;;;;;;;;;;;;17.70;60.16;99414.22;4452305;32;19989;-89
2021/03/13 10:59:43;;;;;;;;;;;;;;;17.91;60.16;99419.00;4451670;32;25655;-89
2021/03/13 11:02:08;;;;;;;;;;;;;;;17.98;60.17;99413.22;4438487;32;30867;-88
2021/03/13 11:04:33;;;;;;;;;;;;;;;17.93;60.17;99402.16;4452257;32;19965;-89
2021/03/13 11:06:59;;;;;;;;;;;;;;;17.69;60.15;99403.78;4451955;32;20271;-88
2021/03/13 11:09:25;;;;;;;;;;;;;;;17.88;60.17;99400.78;4453412;32;19981;-89
2021/03/13 11:11:50;;;;;;;;;;;;;;;17.93;60.17;99404.78;4453434;32;19993;-88
2021/03/13 11:14:15;;;;;;;;;;;;;;;17.91;60.16;99400.56;4453490;32;20001;-89
2021/03/13 11:16:40;;;;;;;;;;;;;;;17.97;60.16;99403.62;4452191;32;20357;-89
2021/03/13 11:19:06;;;;;;;;;;;;;;;17.84;60.15;99392.25;4451306;32;32240;-88
2021/03/13 11:21:31;;;;;;;;;;;;;;;17.89;60.16;99392.78;4439303;32;20009;-89
2021/03/13 11:23:56;;;;;;;;;;;;;;;18.21;60.18;99387.09;4452093;32;20086;-89
2021/03/13 11:26:22;;;;;;;;;;;;;;;18.17;60.18;99380.34;4451966;32;19997;-89
2021/03/13 11:28:48;;;;;;;;;;;;;;;18.08;60.18;99366.03;4451902;32;20060;-89
2021/03/13 11:31:13;;;;;;;;;;;;;;;18.14;60.18;99372.66;4451378;32;20235;-89
2021/03/13 11:33:38;;;;;;;;;;;;;;;18.13;60.18;99370.97;4438820;32;20317;-89
2021/03/13 11:36:03;;;;;;;;;;;;;;;18.19;60.18;99370.53;4453374;32;19977;-89
2021/03/13 11:38:30;;;;;;;;;;;;;;;18.38;60.20;99355.16;4451952;32;20004;-89
2021/03/13 11:40:55;;;;;;;;;;;;;;;18.39;60.20;99357.66;4426487;32;801110;-89
2021/03/13 11:43:20;;;;;;;;;;;;;;;18.43;60.19;99350.38;4438253;32;30089;-89
2021/03/13 11:45:45;;;;;;;;;;;;;;;18.44;60.19;99341.53;4452655;32;22066;-89
2021/03/13 11:48:10;;;;;;;;;;;;;;;18.35;60.19;99343.03;4452830;32;19973;-88
2021/03/13 11:50:36;;;;;;;;;;;;;;;18.36;60.19;99336.81;4452436;32;25176;-89
2021/03/13 11:53:01;;;;;;;;;;;;;;;18.33;60.19;99328.28;4452797;32;20332;-89
2021/03/13 11:55:26;;;;;;;;;;;;;;;18.49;60.20;99318.34;4452983;32;20353;-89
2021/03/13 11:57:52;;;;;;;;;;;;;;;18.47;60.20;99314.13;4451537;32;20011;-88
2021/03/13 12:00:17;;;;;;;;;;;;;;;18.49;60.20;99313.06;4451589;32;19977;-89
2021/03/13 12:02:42;;;;;;;;;;;;;;;18.58;60.20;99308.94;4451522;32;19985;-91
2021/03/13 12:05:08;;;;;;;;;;;;;;;18.61;60.21;99298.16;4451752;32;20338;-89
2021/03/13 12:07:37;;;;;;;;;;;;;;;18.79;60.22;99293.38;4451504;32;20360;-89
2021/03/13 12:10:03;;;;;;;;;;;;;;;18.82;60.22;99290.53;4452674;32;20040;-89
2021/03/13 12:12:29;;;;;;;;;;;;;;;18.51;60.20;99271.63;4452716;32;19977;-89
2021/03/13 12:14:54;;;;;;;;;;;;;;;18.63;60.21;99278.66;4452775;32;20028;-89
2021/03/13 12:17:19;;;;;;;;;;;;;;;18.63;60.21;99277.81;4451055;32;19977;-89
2021/03/13 12:19:44;;;;;;;;;;;;;;;18.56;60.21;99274.78;4451195;32;20333;-89
2021/03/13 12:22:10;;;;;;;;;;;;;;;18.54;60.20;99266.12;4451317;32;19988;-89
2021/03/13 12:24:35;;;;;;;;;;;;;;;18.63;60.21;99254.94;4450933;32;19992;-88
2021/03/13 12:27:00;;;;;;;;;;;;;;;18.55;60.20;99256.44;4451017;32;20323;-89
2021/03/13 12:29:25;;;;;;;;;;;;;;;18.34;60.19;99254.37;4452454;32;20251;-88
2021/03/13 12:31:51;;;;;;;;;;;;;;;18.38;60.20;99244.47;4452369;32;20247;-89
2021/03/13 12:34:16;;;;;;;;;;;;;;;18.33;60.19;99242.16;4437458;32;31627;-88
2021/03/13 12:36:41;;;;;;;;;;;;;;;18.34;60.19;99241.22;4450982;32;19981;-88
2021/03/13 12:39:06;;;;;;;;;;;;;;;18.28;60.19;99231.13;4450473;32;20020;-89
2021/03/13 12:41:31;;;;;;;;;;;;;;;18.28;60.19;99222.38;4437298;32;30768;-89
2021/03/13 12:43:57;;;;;;;;;;;;;;;18.34;60.19;99230.69;4439171;32;19997;-89
2021/03/13 12:46:22;;;;;;;;;;;;;;;18.14;60.18;99233.91;4440318;32;20329;-88
2021/03/13 12:48:47;;;;;;;;;;;;;;;18.06;60.18;99223.06;4452609;32;23687;-89
2021/03/13 12:51:13;;;;;;;;;;;;;;;17.97;60.18;99229.81;4453077;32;19992;-89